^^
Grace C. Lehan Memorial Weather Station Historical Data
Daily Summary for May 18, 2022 Units:  Metric    English   Both
Daily Weekly Monthly Yearly
  High: Low: Average:
Temperature: 23.3 °C 11 °C 16.7 °C
Dew Point: 8 °C 0.7 °C 5.5 °C
Humidity: 77% 24% 50%
Wind Speed: 11.3km/h 0km/h 2.3km/h
Wind Gust: 29km/h - -
Wind- - WNW
Pressure: 1013.4 hPa 1009.7 hPa -
Precipitation: 0 mm    
 
 
Tabular Data for May 18, 2022
Time Temperature Dew Point Pressure Wind Wind Speed Wind Gust Humidity Rainfall Rate (Hourly) solar
00:09 14.7 °C 7 °C 1010.4 hPa NW 2.1 km/h 16.1 km/h 60% 0 mm 0 W/m2
00:14 14.6 °C 7.1 °C 1010.4 hPa NW 3.4 km/h 16.1 km/h 60.8% 0 mm 0 W/m2
00:19 14.5 °C 7 °C 1010 hPa NW 0.5 km/h 16.1 km/h 60.7% 0 mm 0 W/m2
00:24 14.5 °C 7.1 °C 1010 hPa NW 0.6 km/h 16.1 km/h 61% 0 mm 0 W/m2
00:29 14.4 °C 7 °C 1010 hPa NW 0.8 km/h 16.1 km/h 61% 0 mm 0 W/m2
00:34 14.3 °C 6.9 °C 1010 hPa Calm     61% 0 mm 0 W/m2
00:39 14.3 °C 6.9 °C 1010 hPa NW 0.6 km/h 8 km/h 61.3% 0 mm 0 W/m2
00:44 14.2 °C 7 °C 1010 hPa WNW 1.9 km/h 8 km/h 62% 0 mm 0 W/m2
00:49 14.1 °C 7.1 °C 1010 hPa Calm   8 km/h 62.8% 0 mm 0 W/m2
00:54 13.9 °C 7.1 °C 1010 hPa Calm   8 km/h 63% 0 mm 0 W/m2
00:59 13.9 °C 7.1 °C 1010 hPa Calm   8 km/h 63.4% 0 mm 0 W/m2
01:04 13.8 °C 7.1 °C 1010 hPa Calm   8 km/h 64% 0 mm 0 W/m2
01:09 13.7 °C 7 °C 1010 hPa Calm     64% 0 mm 0 W/m2
01:14 13.6 °C 6.9 °C 1009.7 hPa Calm     64.3% 0 mm 0 W/m2
01:19 13.5 °C 7.1 °C 1009.7 hPa Calm   1.6 km/h 65% 0 mm 0 W/m2
01:24 13.4 °C 7 °C 1010 hPa WNW 0.6 km/h 6.4 km/h 65.3% 0 mm 0 W/m2
01:29 13.3 °C 7.1 °C 1009.7 hPa WNW 0.2 km/h 6.4 km/h 66% 0 mm 0 W/m2
01:34 13.2 °C 7.1 °C 1009.7 hPa WNW 0.2 km/h 6.4 km/h 66.2% 0 mm 0 W/m2
01:39 13.2 °C 7.2 °C 1009.7 hPa Calm   3.2 km/h 67% 0 mm 0 W/m2
01:44 13.1 °C 7.1 °C 1009.7 hPa Calm   3.2 km/h 67% 0 mm 0 W/m2
01:49 13 °C 7.1 °C 1009.7 hPa Calm   3.2 km/h 67% 0 mm 0 W/m2
01:54 12.9 °C 7.1 °C 1009.7 hPa Calm   3.2 km/h 67.4% 0 mm 0 W/m2
01:59 12.9 °C 7.2 °C 1009.7 hPa WNW 0.2 km/h 4.8 km/h 68% 0 mm 0 W/m2
02:04 12.8 °C 7.3 °C 1009.7 hPa Calm   4.8 km/h 68.9% 0 mm 0 W/m2
02:09 12.7 °C 7.3 °C 1009.7 hPa WNW 0.3 km/h 3.2 km/h 69.4% 0 mm 0 W/m2
02:14 12.6 °C 7.1 °C 1009.7 hPa Calm   3.2 km/h 69% 0 mm 0 W/m2
02:19 12.6 °C 7.2 °C 1009.7 hPa WNW 0.3 km/h 4.8 km/h 69.6% 0 mm 0 W/m2
02:24 12.5 °C 7 °C 1009.7 hPa Calm   4.8 km/h 69.2% 0 mm 0 W/m2
02:29 12.5 °C 7.2 °C 1009.7 hPa Calm   4.8 km/h 70% 0 mm 0 W/m2
02:34 12.5 °C 7.2 °C 1009.7 hPa Calm   4.8 km/h 70% 0 mm 0 W/m2
02:39 12.4 °C 7.1 °C 1009.7 hPa Calm     70% 0 mm 0 W/m2
02:44 12.4 °C 7.1 °C 1009.7 hPa Calm     70% 0 mm 0 W/m2
02:49 12.3 °C 7 °C 1009.7 hPa Calm     70% 0 mm 0 W/m2
02:54 12.2 °C 7.1 °C 1009.7 hPa WNW 0.2 km/h 6.4 km/h 70.5% 0 mm 0 W/m2
02:59 12.2 °C 7.1 °C 1009.7 hPa NW 1.1 km/h 16.1 km/h 71.2% 0 mm 0 W/m2
03:04 12.1 °C 7.2 °C 1009.7 hPa Calm   16.1 km/h 72.1% 0 mm 0 W/m2
03:09 12.1 °C 7.2 °C 1010 hPa NW 0.8 km/h 6.4 km/h 72.3% 0 mm 0 W/m2
03:14 11.9 °C 7.1 °C 1010 hPa Calm   6.4 km/h 72% 0 mm 0 W/m2
03:19 11.9 °C 7.1 °C 1010 hPa Calm   6.4 km/h 72.1% 0 mm 0 W/m2
03:24 11.9 °C 7.1 °C 1010.4 hPa Calm   6.4 km/h 72% 0 mm 0 W/m2
03:29 11.9 °C 7.2 °C 1010.4 hPa Calm   6.4 km/h 73% 0 mm 0 W/m2
03:34 11.8 °C 7.3 °C 1010.4 hPa Calm   6.4 km/h 73.8% 0 mm 0 W/m2
03:39 11.7 °C 7.2 °C 1010.4 hPa Calm     74% 0 mm 0 W/m2
03:44 11.6 °C 7.2 °C 1010.4 hPa Calm     74.6% 0 mm 0 W/m2
03:49 11.4 °C 7.3 °C 1010.4 hPa Calm   3.2 km/h 75.5% 0 mm 0 W/m2
03:54 11.3 °C 7.2 °C 1010.7 hPa Calm   3.2 km/h 76% 0 mm 0 W/m2
03:57 11.2 °C 7.3 °C 1010.7 hPa NW 0.2 km/h 3.2 km/h 76.7% 0 mm 0 W/m2
04:09 11 °C 7.1 °C 1010.7 hPa Calm   1.6 km/h 77% 0 mm 0 W/m2
04:14 11 °C 7.1 °C 1011.1 hPa WNW 1.1 km/h 6.4 km/h 77% 0 mm 0 W/m2
04:18 11 °C 7.1 °C 1011.1 hPa WNW 0.6 km/h 6.4 km/h 77% 0 mm 0 W/m2
04:24 11.1 °C 7.2 °C 1011.1 hPa West 0.3 km/h 11.3 km/h 77% 0 mm 0 W/m2
04:29 11.1 °C 7.2 °C 1011.1 hPa Calm   11.3 km/h 76.9% 0 mm 0 W/m2
04:34 11.2 °C 7.1 °C 1011.1 hPa Calm   11.3 km/h 76% 0 mm 0 W/m2
04:39 11.2 °C 7.1 °C 1011.1 hPa WNW 0.8 km/h 14.5 km/h 76% 0 mm 0 W/m2
04:44 11.2 °C 7.2 °C 1011.1 hPa WNW 1 km/h 14.5 km/h 76% 0 mm 0 W/m2
04:49 11.3 °C 7.2 °C 1011.1 hPa WNW 0.2 km/h 14.5 km/h 76% 0 mm 0 W/m2
04:54 11.3 °C 7.2 °C 1011.1 hPa WSW 0.3 km/h 14.5 km/h 75.4% 0 mm 0 W/m2
04:59 11.4 °C 7.1 °C 1011.1 hPa WSW 0.5 km/h 14.5 km/h 75% 0 mm 0 W/m2
05:04 11.4 °C 7.1 °C 1011.4 hPa WSW 0.8 km/h 14.5 km/h 75% 0 mm 0 W/m2
05:09 11.4 °C 7 °C 1011.4 hPa WSW 1.9 km/h 8 km/h 74.3% 0 mm 0 W/m2
05:14 11.4 °C 7 °C 1011.4 hPa West 0.6 km/h 11.3 km/h 74% 0 mm 0 W/m2
05:19 11.5 °C 7 °C 1011.4 hPa WNW 1.8 km/h 16.1 km/h 74% 0 mm 0 W/m2
05:24 11.5 °C 7.2 °C 1011.7 hPa West 2.1 km/h 16.1 km/h 74.7% 0 mm 0 W/m2
05:29 11.6 °C 6.9 °C 1011.7 hPa West 1.4 km/h 16.1 km/h 73% 0 mm 0 W/m2
05:34 11.6 °C 6.9 °C 1011.7 hPa West 0.2 km/h 16.1 km/h 73% 0 mm 7 W/m2
05:39 11.6 °C 6.8 °C 1011.7 hPa WNW 4 km/h 16.1 km/h 72.2% 0 mm 9 W/m2
05:44 11.7 °C 6.8 °C 1011.7 hPa NW 2.3 km/h 16.1 km/h 72% 0 mm 11 W/m2
05:49 11.7 °C 6.8 °C 1011.7 hPa WNW 2.3 km/h 16.1 km/h 72% 0 mm 16 W/m2
05:53 11.8 °C 6.9 °C 1011.7 hPa WNW 1.3 km/h 16.1 km/h 72% 0 mm 18 W/m2
05:59 11.8 °C 6.9 °C 1011.7 hPa WNW 0.5 km/h 16.1 km/h 72% 0 mm 21 W/m2
06:04 11.8 °C 6.9 °C 1011.7 hPa WNW 1.6 km/h 16.1 km/h 72% 0 mm 25 W/m2
06:09 11.7 °C 6.8 °C 1012.1 hPa WNW 2.9 km/h 14.5 km/h 72% 0 mm 28 W/m2
06:14 11.7 °C 6.7 °C 1012.1 hPa WNW 3.1 km/h 17.7 km/h 71.1% 0 mm 35 W/m2
06:19 11.8 °C 6.6 °C 1012.1 hPa WNW 2.7 km/h 19.3 km/h 70.5% 0 mm 42 W/m2
06:24 11.9 °C 6.6 °C 1012.1 hPa WNW 2.4 km/h 19.3 km/h 70.2% 0 mm 111 W/m2
06:29 12 °C 6.7 °C 1012.1 hPa WNW 3.2 km/h 19.3 km/h 70% 0 mm 146 W/m2
06:34 12.3 °C 6.8 °C 1012.1 hPa WNW 3.5 km/h 19.3 km/h 69.2% 0 mm 174 W/m2
06:39 12.6 °C 6.9 °C 1012.1 hPa WNW 2.1 km/h 16.1 km/h 68.6% 0 mm 195 W/m2
06:44 12.9 °C 7.1 °C 1012.4 hPa WNW 2.7 km/h 16.1 km/h 67.8% 0 mm 214 W/m2
06:49 13.3 °C 7.3 °C 1012.4 hPa WNW 1.3 km/h 16.1 km/h 67% 0 mm 232 W/m2
06:54 13.6 °C 7.4 °C 1012.4 hPa WNW 1.6 km/h 16.1 km/h 66.3% 0 mm 248 W/m2
06:59 13.9 °C 7.3 °C 1012.4 hPa West 6.8 km/h 19.3 km/h 64.6% 0 mm 265 W/m2
07:04 14.1 °C 7.3 °C 1012.4 hPa West 4 km/h 19.3 km/h 63.4% 0 mm 283 W/m2
07:09 14.3 °C 7.2 °C 1012.4 hPa WNW 7.9 km/h 22.5 km/h 62.5% 0 mm 295 W/m2
07:14 14.4 °C 7.3 °C 1012.4 hPa West 3.4 km/h 22.5 km/h 62.3% 0 mm 315 W/m2
07:19 14.6 °C 7.3 °C 1012.4 hPa West 2.7 km/h 22.5 km/h 61.8% 0 mm 332 W/m2
07:24 14.7 °C 7.4 °C 1012.4 hPa Calm   22.5 km/h 61.3% 0 mm 348 W/m2
07:29 15.1 °C 7.4 °C 1012.4 hPa NW 3.2 km/h 22.5 km/h 60.1% 0 mm 364 W/m2
07:34 15.3 °C 7.2 °C 1012.8 hPa WNW 2.9 km/h 22.5 km/h 58.5% 0 mm 385 W/m2
07:39 15.3 °C 7.1 °C 1012.4 hPa West 5 km/h 24.1 km/h 57.8% 0 mm 401 W/m2
07:44 15.4 °C 6.8 °C 1012.4 hPa WNW 5.3 km/h 24.1 km/h 56.7% 0 mm 415 W/m2
07:49 15.5 °C 7 °C 1012.4 hPa WNW 2.3 km/h 24.1 km/h 56.9% 0 mm 432 W/m2
07:54 15.7 °C 7.6 °C 1012.4 hPa West 1.4 km/h 24.1 km/h 58.2% 0 mm 452 W/m2
07:59 16 °C 7.2 °C 1012.4 hPa West 7.7 km/h 24.1 km/h 55.8% 0 mm 469 W/m2
08:00 16 °C 7 °C 1012.4 hPa Calm   24.1 km/h 55% 0 mm 469 W/m2
08:09 16.2 °C 7.3 °C 1012.4 hPa WNW 5.1 km/h 20.9 km/h 55.7% 0 mm 508 W/m2
08:14 16.2 °C 7.1 °C 1012.4 hPa West 6.6 km/h 22.5 km/h 54.8% 0 mm 520 W/m2
08:19 16.2 °C 6.9 °C 1012.4 hPa WNW 8 km/h 24.1 km/h 54.2% 0 mm 540 W/m2
08:24 16.1 °C 6.8 °C 1012.4 hPa West 9.2 km/h 24.1 km/h 53.8% 0 mm 557 W/m2
08:29 16.1 °C 6.4 °C 1012.4 hPa WNW 10.3 km/h 25.7 km/h 52.7% 0 mm 575 W/m2
08:34 16.2 °C 6.9 °C 1012.8 hPa NW 3.5 km/h 25.7 km/h 54% 0 mm 592 W/m2
08:39 16.5 °C 6.8 °C 1012.8 hPa WNW 8.2 km/h 25.7 km/h 52.8% 0 mm 608 W/m2
08:44 16.7 °C 6.9 °C 1012.4 hPa NW 5 km/h 25.7 km/h 52.2% 0 mm 629 W/m2
08:49 16.9 °C 7 °C 1012.4 hPa WNW 4.8 km/h 25.7 km/h 51.9% 0 mm 640 W/m2
08:54 17.2 °C 6.8 °C 1012.8 hPa West 8.9 km/h 27.4 km/h 50.3% 0 mm 654 W/m2
08:59 17.3 °C 6.4 °C 1012.8 hPa WNW 7.4 km/h 27.4 km/h 48.8% 0 mm 668 W/m2
09:04 17.3 °C 6.6 °C 1012.8 hPa NW 4.5 km/h 27.4 km/h 49.1% 0 mm 684 W/m2
09:09 17.6 °C 6.8 °C 1012.8 hPa WNW 2.3 km/h 20.9 km/h 49.4% 0 mm 700 W/m2
09:14 17.9 °C 7.7 °C 1012.8 hPa West 2.6 km/h 20.9 km/h 51% 0 mm 712 W/m2
09:19 18.3 °C 6.9 °C 1012.8 hPa WNW 3.2 km/h 20.9 km/h 47.2% 0 mm 731 W/m2
09:24 18.5 °C 6.4 °C 1013.1 hPa WNW 7.7 km/h 24.1 km/h 45.2% 0 mm 749 W/m2
09:29 18.4 °C 5.7 °C 1012.8 hPa WNW 5.5 km/h 29 km/h 43.4% 0 mm 740 W/m2
09:34 18.5 °C 6.1 °C 1012.8 hPa NW 6.6 km/h 29 km/h 44.2% 0 mm 738 W/m2
09:39 18.6 °C 5.2 °C 1013.1 hPa NW 8 km/h 27.4 km/h 41.2% 0 mm 775 W/m2
09:44 18.7 °C 5.3 °C 1013.1 hPa WNW 5.3 km/h 27.4 km/h 41.4% 0 mm 793 W/m2
09:49 18.9 °C 5.7 °C 1013.1 hPa WNW 7.6 km/h 27.4 km/h 42.1% 0 mm 810 W/m2
09:54 19 °C 5.2 °C 1013.4 hPa WNW 7.7 km/h 27.4 km/h 40.1% 0 mm 816 W/m2
09:59 19.1 °C 4.8 °C 1013.4 hPa NW 6.6 km/h 27.4 km/h 39% 0 mm 826 W/m2
10:04 19.1 °C 4.6 °C 1013.4 hPa WNW 5.6 km/h 27.4 km/h 38.5% 0 mm 842 W/m2
10:09 19.3 °C 5.1 °C 1013.4 hPa WNW 7.2 km/h 22.5 km/h 39.3% 0 mm 856 W/m2
10:14 19.4 °C 4.1 °C 1013.4 hPa WNW 7.1 km/h 22.5 km/h 36.2% 0 mm 865 W/m2
10:19 19.6 °C 4.7 °C 1013.4 hPa WNW 5.1 km/h 22.5 km/h 37.6% 0 mm 893 W/m2
10:24 19.8 °C 5.4 °C 1013.1 hPa West 1.9 km/h 22.5 km/h 38.8% 0 mm 909 W/m2
10:29 20.1 °C 4.4 °C 1013.1 hPa WNW 6.1 km/h 22.5 km/h 35.7% 0 mm 926 W/m2
10:34 20.1 °C 3.1 °C 1013.1 hPa NW 11.3 km/h 22.5 km/h 32.3% 0 mm 916 W/m2
10:39 19.8 °C 2.9 °C 1013.4 hPa NW 8.5 km/h 24.1 km/h 32.5% 0 mm 911 W/m2
10:44 19.8 °C 3.5 °C 1013.1 hPa NW 9.2 km/h 24.1 km/h 34% 0 mm 944 W/m2
10:49 19.9 °C 3.3 °C 1013.1 hPa NW 8 km/h 27.4 km/h 33.1% 0 mm 972 W/m2
10:54 20.1 °C 2.9 °C 1013.1 hPa NW 6.9 km/h 27.4 km/h 32% 0 mm 919 W/m2
10:59 20.1 °C 3.2 °C 1013.1 hPa NW 4 km/h 27.4 km/h 32.7% 0 mm 967 W/m2
11:04 20.1 °C 3.4 °C 1013.1 hPa WNW 9.5 km/h 27.4 km/h 33.3% 0 mm 979 W/m2
11:09 20.2 °C 4.2 °C 1013.1 hPa WNW 5.5 km/h 27.4 km/h 34.9% 0 mm 940 W/m2
11:14 20.3 °C 3.8 °C 1013.1 hPa NW 5.8 km/h 27.4 km/h 33.7% 0 mm 947 W/m2
11:19 20.3 °C 3.1 °C 1013.1 hPa NW 10.3 km/h 27.4 km/h 32% 0 mm 947 W/m2
11:24 20.1 °C 3 °C 1013.1 hPa NW 5.3 km/h 27.4 km/h 32.2% 0 mm 854 W/m2
11:29 20.1 °C 4.6 °C 1013.1 hPa NW 8.7 km/h 27.4 km/h 36% 0 mm 867 W/m2
11:34 20.1 °C 4.2 °C 1013.1 hPa NNW 3.2 km/h 27.4 km/h 35% 0 mm 926 W/m2
11:39 20.2 °C 3.8 °C 1012.8 hPa NNW 3.7 km/h 11.3 km/h 34.1% 0 mm 925 W/m2
11:44 20.2 °C 4.1 °C 1012.8 hPa WNW 7.6 km/h 19.3 km/h 34.5% 0 mm 881 W/m2
11:49 20.3 °C 3.8 °C 1012.8 hPa WNW 6.3 km/h 19.3 km/h 33.5% 0 mm 942 W/m2
11:54 20.4 °C 3.7 °C 1012.8 hPa NNW 3.4 km/h 19.3 km/h 33% 0 mm 935 W/m2
11:59 20.7 °C 3.9 °C 1012.4 hPa WNW 7.2 km/h 22.5 km/h 33% 0 mm 953 W/m2
12:00 20.8 °C 3.5 °C 1012.4 hPa Calm   22.5 km/h 32% 0 mm 953 W/m2
12:09 20.6 °C 3.2 °C 1012.4 hPa WNW 3.5 km/h 17.7 km/h 31.6% 0 mm 997 W/m2
12:14 20.7 °C 4.8 °C 1012.4 hPa NW 1.3 km/h 17.7 km/h 35.2% 0 mm 1025 W/m2
12:19 21.1 °C 4.7 °C 1012.4 hPa WNW 5.8 km/h 19.3 km/h 34.2% 0 mm 1025 W/m2
12:23 21.2 °C 3.8 °C 1012.4 hPa NW 5.6 km/h 22.5 km/h 31.9% 0 mm 1018 W/m2
12:30 21.3 °C 4.8 °C 1012.1 hPa WNW 4.8 km/h 22.5 km/h 34% 0 mm 969 W/m2
13:00 21.4 °C 3.1 °C 1011.7 hPa WNW 3.2 km/h 17.7 km/h 30% 0 mm 983 W/m2
13:30 22.1 °C 3.3 °C 1011.4 hPa WNW 4.8 km/h 24.1 km/h 29% 0 mm 1040 W/m2
14:00 22.1 °C 1.7 °C 1011.1 hPa NW 4.8 km/h 24.1 km/h 26% 0 mm 1018 W/m2
14:30 22.3 °C 0.7 °C 1010.7 hPa WNW 4.8 km/h 22.5 km/h 24% 0 mm 894 W/m2
15:00 22.4 °C 4.1 °C 1010.7 hPa WNW 3.2 km/h 17.7 km/h 30% 0 mm 632 W/m2
15:30 23.3 °C 4.8 °C 1010.7 hPa WNW 3.2 km/h 17.7 km/h 30% 0 mm 667 W/m2
16:04 23.2 °C 2.9 °C 1010.7 hPa WNW 8.5 km/h 19.3 km/h 26.4% 0 mm 510 W/m2
16:09 23.1 °C 2.8 °C 1010.7 hPa WNW 6 km/h 19.3 km/h 26.6% 0 mm 431 W/m2
16:14 22.8 °C 3.3 °C 1010.7 hPa West 1.4 km/h 19.3 km/h 27.9% 0 mm 225 W/m2
16:19 22.7 °C 4.1 °C 1010.7 hPa WNW 5.3 km/h 19.3 km/h 29.9% 0 mm 171 W/m2
16:24 22.5 °C 3.3 °C 1010.7 hPa WNW 2.4 km/h 19.3 km/h 28.4% 0 mm 149 W/m2
16:29 22.4 °C 3.2 °C 1010.7 hPa West 3.4 km/h 19.3 km/h 28.4% 0 mm 153 W/m2
16:34 22.3 °C 3.4 °C 1010.7 hPa WNW 7.2 km/h 22.5 km/h 28.9% 0 mm 146 W/m2
16:39 22.3 °C 3.1 °C 1010.7 hPa WNW 1 km/h 22.5 km/h 28.4% 0 mm 144 W/m2
16:44 22.2 °C 3.2 °C 1010.7 hPa West 4 km/h 22.5 km/h 28.7% 0 mm 142 W/m2
16:49 22.1 °C 2.9 °C 1010.7 hPa WNW 5.3 km/h 22.5 km/h 28.3% 0 mm 142 W/m2
16:54 22 °C 3.1 °C 1010.7 hPa WNW 3.5 km/h 22.5 km/h 28.9% 0 mm 107 W/m2
16:59 21.9 °C 3.2 °C 1010.7 hPa West 2.3 km/h 22.5 km/h 29.1% 0 mm 100 W/m2
17:03 21.9 °C 3.3 °C 1010.7 hPa WSW 1.9 km/h 22.5 km/h 29.3% 0 mm 93 W/m2
17:09 21.9 °C 3 °C 1010.7 hPa NW 1.9 km/h 9.7 km/h 28.7% 0 mm 93 W/m2
17:14 21.8 °C 2.7 °C 1010.7 hPa WNW 6.3 km/h 16.1 km/h 28.5% 0 mm 88 W/m2
17:19 21.7 °C 3.3 °C 1011.1 hPa NW 2.3 km/h 16.1 km/h 29.9% 0 mm 95 W/m2
17:24 21.6 °C 2.4 °C 1011.1 hPa West 2.6 km/h 16.1 km/h 28.1% 0 mm 104 W/m2
17:29 21.6 °C 2.4 °C 1011.1 hPa West 1.8 km/h 16.1 km/h 28.2% 0 mm 114 W/m2
17:34 21.5 °C 2.3 °C 1011.1 hPa West 2.7 km/h 16.1 km/h 28.2% 0 mm 130 W/m2
17:39 21.4 °C 2.7 °C 1011.1 hPa West 3.1 km/h 16.1 km/h 29% 0 mm 142 W/m2
17:44 21.3 °C 2.9 °C 1011.1 hPa WNW 2.3 km/h 16.1 km/h 29.7% 0 mm 142 W/m2
17:49 21.3 °C 2.4 °C 1011.1 hPa WNW 3.1 km/h 17.7 km/h 28.8% 0 mm 132 W/m2
17:54 21.1 °C 2 °C 1010.7 hPa WNW 2.9 km/h 17.7 km/h 28.1% 0 mm 134 W/m2
17:59 21 °C 2 °C 1010.7 hPa WNW 2.4 km/h 17.7 km/h 28.4% 0 mm 137 W/m2
18:04 20.9 °C 1.8 °C 1010.7 hPa WNW 1.3 km/h 17.7 km/h 28.1% 0 mm 134 W/m2
18:09 20.8 °C 2 °C 1010.7 hPa West 2.9 km/h 9.7 km/h 28.7% 0 mm 127 W/m2
18:14 20.7 °C 1.7 °C 1010.7 hPa West 3.9 km/h 17.7 km/h 28.2% 0 mm 123 W/m2
18:19 20.7 °C 1.7 °C 1010.7 hPa WNW 1.9 km/h 17.7 km/h 28.4% 0 mm 111 W/m2
18:24 20.6 °C 2.3 °C 1010.7 hPa WNW 4.2 km/h 17.7 km/h 29.8% 0 mm 116 W/m2
18:29 20.6 °C 2.7 °C 1010.4 hPa WNW 1.9 km/h 17.7 km/h 30.6% 0 mm 121 W/m2
18:34 20.6 °C 2.6 °C 1010.7 hPa West 2.6 km/h 17.7 km/h 30.4% 0 mm 120 W/m2
18:39 20.6 °C 2.6 °C 1010.7 hPa WNW 3.5 km/h 11.3 km/h 30.4% 0 mm 90 W/m2
18:44 20.6 °C 2.4 °C 1010.7 hPa WNW 3.7 km/h 20.9 km/h 30.2% 0 mm 67 W/m2
18:49 20.5 °C 3.1 °C 1010.7 hPa West 0.5 km/h 20.9 km/h 31.6% 0 mm 49 W/m2
18:54 20.4 °C 3.1 °C 1010.7 hPa West 0.3 km/h 20.9 km/h 31.8% 0 mm 40 W/m2
18:59 20.3 °C 3.2 °C 1010.7 hPa West 1 km/h 20.9 km/h 32.1% 0 mm 40 W/m2
19:04 20.2 °C 2.7 °C 1010.7 hPa Calm   20.9 km/h 31.3% 0 mm 37 W/m2
19:09 20.1 °C 3.1 °C 1010.7 hPa Calm   1.6 km/h 32.4% 0 mm 40 W/m2
19:14 19.9 °C 3.2 °C 1010.7 hPa Calm   1.6 km/h 33% 0 mm 40 W/m2
19:18 19.9 °C 3.3 °C 1010.7 hPa Calm   1.6 km/h 33.4% 0 mm 35 W/m2
19:24 19.8 °C 3.8 °C 1010.7 hPa Calm   1.6 km/h 34.8% 0 mm 26 W/m2
19:29 19.7 °C 3.8 °C 1010.4 hPa Calm   1.6 km/h 35% 0 mm 16 W/m2
19:34 19.6 °C 3.4 °C 1010.7 hPa Calm   1.6 km/h 34.4% 0 mm 16 W/m2
19:39 19.4 °C 3.4 °C 1010.4 hPa Calm     34.8% 0 mm 16 W/m2
19:44 19.3 °C 3.6 °C 1010.4 hPa Calm     35.2% 0 mm 18 W/m2
19:49 19.2 °C 3.8 °C 1010.4 hPa Calm     36% 0 mm 16 W/m2
19:54 19.1 °C 3.4 °C 1010.4 hPa Calm     35.3% 0 mm 7 W/m2
19:59 18.9 °C 3.2 °C 1010.4 hPa Calm     35.1% 0 mm 0 W/m2
20:04 18.8 °C 3.8 °C 1010.4 hPa Calm     37% 0 mm 0 W/m2
20:09 18.7 °C 3.7 °C 1010.4 hPa Calm     37% 0 mm 0 W/m2
20:14 18.5 °C 3.3 °C 1010.4 hPa Calm     36.4% 0 mm 0 W/m2
20:19 18.4 °C 3.6 °C 1010 hPa Calm     37.4% 0 mm 0 W/m2
20:24 18.2 °C 3.6 °C 1010 hPa Calm     37.7% 0 mm 0 W/m2
20:29 18.1 °C 3.6 °C 1010 hPa Calm     38% 0 mm 0 W/m2
20:34 18 °C 3.7 °C 1010 hPa Calm     38.5% 0 mm 0 W/m2
20:39 17.9 °C 4 °C 1010 hPa Calm     39.5% 0 mm 0 W/m2
20:44 17.9 °C 4.1 °C 1010 hPa Calm     40% 0 mm 0 W/m2
20:49 17.8 °C 3.6 °C 1010 hPa Calm     38.6% 0 mm 0 W/m2
20:54 17.8 °C 3.9 °C 1010 hPa Calm     39.7% 0 mm 0 W/m2
20:59 17.8 °C 4.8 °C 1010 hPa Calm     42.5% 0 mm 0 W/m2
21:04 17.7 °C 5.3 °C 1010 hPa Calm     44% 0 mm 0 W/m2
21:08 17.6 °C 5.3 °C 1010 hPa Calm     44.2% 0 mm 0 W/m2
21:14 17.6 °C 5.2 °C 1010 hPa Calm     44.1% 0 mm 0 W/m2
21:19 17.5 °C 5.4 °C 1009.7 hPa Calm     45% 0 mm 0 W/m2
21:24 17.4 °C 5.8 °C 1009.7 hPa Calm     46.2% 0 mm 0 W/m2
21:29 17.4 °C 6.1 °C 1010 hPa Calm     47.4% 0 mm 0 W/m2
21:34 17.3 °C 6.3 °C 1010 hPa Calm     48.3% 0 mm 0 W/m2
21:39 17.2 °C 6.4 °C 1010 hPa Calm     49% 0 mm 0 W/m2
21:44 17.2 °C 6.6 °C 1010 hPa Calm     49.9% 0 mm 0 W/m2
21:49 17.1 °C 6.7 °C 1010 hPa Calm     50.3% 0 mm 0 W/m2
21:54 17.1 °C 6.9 °C 1010 hPa Calm     51.3% 0 mm 0 W/m2
21:59 16.9 °C 7.1 °C 1010 hPa Calm     52.1% 0 mm 0 W/m2
22:04 16.8 °C 7.3 °C 1010 hPa Calm     53.4% 0 mm 0 W/m2
22:08 16.8 °C 7.6 °C 1010 hPa Calm     54.8% 0 mm 0 W/m2
22:14 16.6 °C 7.6 °C 1010 hPa Calm     55% 0 mm 0 W/m2
22:19 16.5 °C 7.2 °C 1010 hPa Calm     54.2% 0 mm 0 W/m2
22:24 16.4 °C 6.8 °C 1010 hPa Calm     53% 0 mm 0 W/m2
22:29 16.4 °C 6.7 °C 1010 hPa Calm     52.6% 0 mm 0 W/m2
22:34 16.3 °C 6.1 °C 1010.4 hPa Calm     50.4% 0 mm 0 W/m2
22:39 16.4 °C 5.9 °C 1010.4 hPa Calm     49.8% 0 mm 0 W/m2
22:44 16.4 °C 5.7 °C 1010.4 hPa Calm     49.3% 0 mm 0 W/m2
22:49 16.4 °C 5.7 °C 1010.4 hPa Calm     49.3% 0 mm 0 W/m2
22:53 16.4 °C 5.9 °C 1010.4 hPa Calm     50% 0 mm 0 W/m2
22:59 16.3 °C 5.8 °C 1010.4 hPa Calm     49.6% 0 mm 0 W/m2
23:04 16.3 °C 5.9 °C 1010.4 hPa Calm     50% 0 mm 0 W/m2
23:09 16.3 °C 6.1 °C 1010.4 hPa Calm     50.6% 0 mm 0 W/m2
23:14 16.3 °C 6.2 °C 1010.4 hPa Calm     51.2% 0 mm 0 W/m2
23:19 16.3 °C 6.4 °C 1010.4 hPa Calm     52% 0 mm 0 W/m2
23:24 16.3 °C 6.4 °C 1010.4 hPa Calm     52% 0 mm 0 W/m2
23:29 16.3 °C 6.6 °C 1010.4 hPa Calm     52.5% 0 mm 0 W/m2
23:34 16.3 °C 6.8 °C 1010.4 hPa Calm     53.2% 0 mm 0 W/m2
23:39 16.3 °C 7.1 °C 1010.7 hPa Calm     54.4% 0 mm 0 W/m2
23:44 16.3 °C 7.4 °C 1010.7 hPa Calm     55.7% 0 mm 0 W/m2
23:49 16.3 °C 7.7 °C 1010.7 hPa Calm     56.8% 0 mm 0 W/m2
23:54 16.3 °C 7.9 °C 1010.7 hPa Calm     57.7% 0 mm 0 W/m2
23:59 16.3 °C 8 °C 1010.7 hPa Calm     58% 0 mm 0 W/m2
Hartford County Weather
Compliments of Weather Underground - 2 mb